createdAt,value
2019-04-03T00:01:00.679Z,69.91
2019-04-03T00:03:29.633Z,70.38
2019-04-03T00:16:42.111Z,71.24
2019-04-03T00:19:11.122Z,71.41
2019-04-03T00:21:40.017Z,71.36
2019-04-03T00:24:08.926Z,71.66
2019-04-03T00:26:38.418Z,71.85
2019-04-03T00:29:07.317Z,71.90
2019-04-03T00:31:36.155Z,71.95
2019-04-03T00:34:05.095Z,72.19
2019-04-03T00:36:33.998Z,72.21
2019-04-03T00:39:02.816Z,72.53
2019-04-03T00:41:31.654Z,72.58
2019-04-03T00:44:00.517Z,72.50
2019-04-03T00:46:29.441Z,72.49
2019-04-03T00:48:58.249Z,72.36
2019-04-03T00:51:27.933Z,72.80
2019-04-03T00:53:57.836Z,73.02
2019-04-03T00:56:27.007Z,73.03
2019-04-03T00:58:56.652Z,73.26
2019-04-03T01:01:26.547Z,73.44
2019-04-03T01:03:56.842Z,73.65
2019-04-03T01:06:28.282Z,73.79
2019-04-03T01:08:59.424Z,73.99
2019-04-03T01:11:28.876Z,74.02
2019-04-03T01:13:59.742Z,74.32
2019-04-03T01:16:30.824Z,74.40
2019-04-03T01:18:59.968Z,74.87
2019-04-03T01:21:28.800Z,75.01
2019-04-03T01:23:59.371Z,75.17
2019-04-03T01:26:28.291Z,75.41
2019-04-03T01:28:57.132Z,75.49
2019-04-03T01:31:25.999Z,75.75
2019-04-03T01:33:54.953Z,75.38
2019-04-03T01:36:23.785Z,75.57
2019-04-03T01:38:52.744Z,76.16
2019-04-03T01:41:21.679Z,76.32
2019-04-03T01:43:53.155Z,76.59
2019-04-03T01:46:21.143Z,76.67
2019-04-03T01:48:49.989Z,76.71
2019-04-03T01:51:18.821Z,76.83
2019-04-03T01:53:47.695Z,76.96
2019-04-03T01:56:16.630Z,77.31
2019-04-03T01:58:45.858Z,77.46
2019-04-03T02:01:14.769Z,77.53
2019-04-03T02:03:43.714Z,77.36
2019-04-03T02:06:13.593Z,77.64
2019-04-03T02:08:44.920Z,77.82
2019-04-03T02:11:13.761Z,78.06
2019-04-03T02:13:42.679Z,79.03
2019-04-03T02:16:11.631Z,80.60
2019-04-03T02:18:40.844Z,79.16
2019-04-03T02:21:09.735Z,79.17
2019-04-03T02:23:38.744Z,79.09
2019-04-03T02:26:07.710Z,78.91
2019-04-03T02:28:36.580Z,79.71
2019-04-03T02:31:05.764Z,79.65
2019-04-03T02:33:34.572Z,79.78
2019-04-03T02:36:03.466Z,79.78
2019-04-03T02:38:32.330Z,80.07
2019-04-03T02:41:03.487Z,79.99
2019-04-03T02:43:32.024Z,80.10
2019-04-03T02:46:01.293Z,80.17
2019-04-03T02:48:30.435Z,80.41
2019-04-03T02:50:59.790Z,80.46
2019-04-03T02:53:30.521Z,80.70
2019-04-03T02:56:02.208Z,81.23
2019-04-03T02:58:31.412Z,80.86
2019-04-03T03:01:00.435Z,81.01
2019-04-03T03:03:29.218Z,81.10
2019-04-03T03:06:00.603Z,81.34
2019-04-03T03:08:29.099Z,81.27
2019-04-03T03:10:58.251Z,81.78
2019-04-03T03:13:28.167Z,81.50
2019-04-03T03:15:57.938Z,81.53
2019-04-03T03:18:28.350Z,81.98
2019-04-03T03:20:57.898Z,81.82
2019-04-03T03:23:27.079Z,81.82
2019-04-03T03:25:58.054Z,81.51
2019-04-03T03:28:27.843Z,81.92
2019-04-03T03:31:03.651Z,82.06
2019-04-03T03:33:35.483Z,82.29
2019-04-03T03:36:00.327Z,82.35
2019-04-03T03:38:29.812Z,82.44
2019-04-03T03:40:59.390Z,82.27
2019-04-03T03:43:29.115Z,82.50
2019-04-03T03:46:00.217Z,83.44
2019-04-03T03:48:29.977Z,84.46
2019-04-03T03:51:01.000Z,84.58
2019-04-03T03:53:33.669Z,83.86
2019-04-03T03:56:02.971Z,83.25
2019-04-03T03:58:32.436Z,83.35
2019-04-03T04:01:01.547Z,83.59
2019-04-03T04:03:30.747Z,83.56
2019-04-03T04:05:59.966Z,83.96
2019-04-03T04:08:31.905Z,84.20
2019-04-03T04:11:02.208Z,84.87
2019-04-03T04:13:31.090Z,84.52
2019-04-03T04:16:04.180Z,85.00
2019-04-03T04:18:31.375Z,84.78
2019-04-03T04:21:00.448Z,84.39
2019-04-03T04:23:30.463Z,84.73
2019-04-03T04:26:01.534Z,88.27
2019-04-03T04:28:30.813Z,87.88
2019-04-03T04:31:00.283Z,85.79
2019-04-03T04:33:29.621Z,84.57
2019-04-03T04:35:58.519Z,84.59
2019-04-03T04:38:27.486Z,84.79
2019-04-03T04:40:56.405Z,84.99
2019-04-03T04:43:25.419Z,85.12
2019-04-03T04:45:54.351Z,85.11
2019-04-03T04:48:23.683Z,85.78
2019-04-03T04:51:25.342Z,88.34
2019-04-03T04:53:53.344Z,89.57
2019-04-03T04:56:25.133Z,88.01
2019-04-03T04:58:54.181Z,87.32
2019-04-03T05:01:23.124Z,86.22
2019-04-03T05:03:55.232Z,86.08
2019-04-03T05:06:24.469Z,86.10
2019-04-03T05:08:53.803Z,86.13
2019-04-03T05:11:22.789Z,86.68
2019-04-03T05:13:51.693Z,86.54
2019-04-03T05:16:25.063Z,86.22
2019-04-03T05:18:54.777Z,85.85
2019-04-03T05:21:23.861Z,85.70
2019-04-03T05:23:55.477Z,86.70
2019-04-03T05:26:23.442Z,87.57
2019-04-03T05:28:55.843Z,87.96
2019-04-03T05:31:24.264Z,87.48
2019-04-03T05:33:53.214Z,88.07
2019-04-03T05:36:22.562Z,86.97
2019-04-03T05:38:53.459Z,86.66
2019-04-03T05:41:22.181Z,86.46
2019-04-03T05:43:51.208Z,86.70
2019-04-03T05:46:20.056Z,87.33
2019-04-03T05:48:49.316Z,87.39
2019-04-03T05:51:18.343Z,87.75
2019-04-03T05:53:47.251Z,88.01
2019-04-03T05:56:16.296Z,87.53
2019-04-03T05:58:55.593Z,87.55
2019-04-03T06:01:15.818Z,89.90
2019-04-03T06:03:46.485Z,89.62
2019-04-03T06:06:16.068Z,88.15
2019-04-03T06:08:45.330Z,87.47
2019-04-03T06:11:14.430Z,87.54
2019-04-03T06:13:43.338Z,88.04
2019-04-03T06:16:12.279Z,88.92
2019-04-03T06:18:47.790Z,87.96
2019-04-03T06:21:17.183Z,88.41
2019-04-03T06:23:46.369Z,87.53
2019-04-03T06:26:15.439Z,88.61
2019-04-03T06:28:46.296Z,88.37
2019-04-03T06:31:15.103Z,88.45
2019-04-03T06:33:45.452Z,88.03
2019-04-03T06:36:16.873Z,87.47
2019-04-03T06:38:45.072Z,87.34
2019-04-03T06:41:14.014Z,87.62
2019-04-03T06:43:43.111Z,87.34
2019-04-03T06:46:12.014Z,87.47
2019-04-03T06:48:41.187Z,87.92
2019-04-03T06:51:10.368Z,88.10
2019-04-03T06:53:44.870Z,87.19
2019-04-03T06:56:15.808Z,86.29
2019-04-03T06:58:47.293Z,86.44
2019-04-03T07:11:06.147Z,85.92
2019-04-03T07:13:35.231Z,86.03
2019-04-03T07:16:04.264Z,85.89
2019-04-03T07:18:34.523Z,85.44
2019-04-03T07:21:03.889Z,85.26
2019-04-03T07:23:32.861Z,85.14
2019-04-03T07:26:02.948Z,85.28
2019-04-03T07:28:32.614Z,85.04
2019-04-03T07:31:01.536Z,84.84
2019-04-03T07:33:30.676Z,84.71
2019-04-03T07:35:59.700Z,84.66
2019-04-03T07:38:28.909Z,84.36
2019-04-03T07:40:57.942Z,84.37
2019-04-03T07:43:27.583Z,84.04
2019-04-03T07:45:56.951Z,83.93
2019-04-03T07:48:26.214Z,83.91
2019-04-03T07:50:55.108Z,83.71
2019-04-03T07:53:24.041Z,83.82
2019-04-03T07:55:55.116Z,83.84
2019-04-03T07:58:25.335Z,83.88
2019-04-03T08:00:55.457Z,83.85
2019-04-03T08:03:24.434Z,83.98
2019-04-03T08:05:56.028Z,83.89
2019-04-03T08:08:26.637Z,83.65
2019-04-03T08:10:55.654Z,83.21
2019-04-03T08:13:24.620Z,83.11
2019-04-03T08:15:53.521Z,83.09
2019-04-03T08:18:22.464Z,82.67
2019-04-03T08:20:51.379Z,82.54
2019-04-03T08:23:20.924Z,82.59
2019-04-03T08:25:49.963Z,82.77
2019-04-03T08:28:19.139Z,82.44
2019-04-03T08:30:48.200Z,81.94
2019-04-03T08:33:19.792Z,82.22
2019-04-03T08:35:48.042Z,81.50
2019-04-03T08:38:17.136Z,81.43
2019-04-03T08:40:46.203Z,81.13
2019-04-03T08:43:15.261Z,80.94
2019-04-03T08:45:44.294Z,81.08
2019-04-03T08:48:14.965Z,80.62
2019-04-03T08:50:44.936Z,81.06
2019-04-03T08:53:14.202Z,80.33
2019-04-03T08:55:43.983Z,80.14
2019-04-03T08:58:13.992Z,79.96
2019-04-03T09:00:43.200Z,80.06
2019-04-03T09:03:14.300Z,79.47
2019-04-03T09:05:42.691Z,79.62
2019-04-03T09:08:11.599Z,79.39
2019-04-03T09:10:41.185Z,79.55
2019-04-03T09:13:18.042Z,79.11
2019-04-03T09:15:40.953Z,79.69
2019-04-03T09:18:10.102Z,78.58
2019-04-03T09:20:39.012Z,79.53
2019-04-03T09:23:07.939Z,79.75
2019-04-03T09:25:37.556Z,80.10
2019-04-03T09:28:06.490Z,81.31
2019-04-03T09:30:35.831Z,81.88
2019-04-03T09:33:04.965Z,82.73
2019-04-03T09:35:34.348Z,83.30
2019-04-03T09:38:03.262Z,83.63
2019-04-03T09:40:32.160Z,83.93
2019-04-03T09:43:01.004Z,84.72
2019-04-03T09:45:30.220Z,85.46
2019-04-03T09:47:59.234Z,86.02
2019-04-03T09:50:28.224Z,86.35
2019-04-03T09:52:57.167Z,87.38
2019-04-03T09:55:26.367Z,88.43
2019-04-03T09:57:55.245Z,88.96
2019-04-03T10:00:24.278Z,88.90
2019-04-03T10:02:53.327Z,89.70
2019-04-03T10:05:22.792Z,90.26
2019-04-03T10:07:51.759Z,90.05
2019-04-03T10:10:21.020Z,90.61
2019-04-03T10:12:49.876Z,92.00
2019-04-03T10:15:19.443Z,91.85
2019-04-03T10:17:48.796Z,92.10
2019-04-03T10:20:18.980Z,92.37
2019-04-03T10:22:48.603Z,92.66
2019-04-03T10:25:17.533Z,92.84
2019-04-03T10:27:46.653Z,92.97
2019-04-03T10:30:16.644Z,93.40
2019-04-03T10:32:45.711Z,93.78
2019-04-03T10:35:15.227Z,93.78
2019-04-03T10:37:46.310Z,93.76
2019-04-03T10:40:15.825Z,94.43
2019-04-03T10:42:45.134Z,94.36
2019-04-03T10:45:14.875Z,94.34
2019-04-03T10:47:44.795Z,94.48
2019-04-03T10:50:14.378Z,94.66
2019-04-03T10:52:47.915Z,94.84
2019-04-03T10:55:16.185Z,95.04
2019-04-03T10:57:45.443Z,95.03
2019-04-03T11:00:15.557Z,95.49
2019-04-03T11:02:45.106Z,95.38
2019-04-03T11:05:15.116Z,95.39
2019-04-03T11:07:44.177Z,95.45
2019-04-03T11:10:14.230Z,95.56
2019-04-03T11:12:43.524Z,95.53
2019-04-03T11:15:12.883Z,95.73
2019-04-03T11:17:42.127Z,95.77
2019-04-03T11:20:12.240Z,95.70
2019-04-03T11:22:42.760Z,95.83
2019-04-03T11:25:15.356Z,95.89
2019-04-03T11:27:45.047Z,95.63
2019-04-03T11:30:18.182Z,95.56
2019-04-03T11:32:45.939Z,95.65
2019-04-03T11:35:15.437Z,95.97
2019-04-03T11:37:44.837Z,96.19
2019-04-03T11:40:17.407Z,95.91
2019-04-03T11:42:45.855Z,95.86
2019-04-03T11:45:15.199Z,95.99
2019-04-03T11:47:46.174Z,96.07
2019-04-03T11:50:15.809Z,96.15
2019-04-03T11:52:46.572Z,96.50
2019-04-03T11:55:15.642Z,96.67
2019-04-03T11:57:47.449Z,97.04
2019-04-03T12:00:18.980Z,97.03
2019-04-03T12:02:52.359Z,96.93
2019-04-03T12:05:21.637Z,96.96
2019-04-03T12:07:50.628Z,97.08
2019-04-03T12:10:19.516Z,97.12
2019-04-03T12:12:49.226Z,97.10
2019-04-03T12:15:21.436Z,97.08
2019-04-03T12:17:49.762Z,97.17
2019-04-03T12:20:18.841Z,96.97
2019-04-03T12:22:49.765Z,96.81
2019-04-03T12:25:21.600Z,96.63
2019-04-03T12:27:50.852Z,96.63
2019-04-03T12:30:20.037Z,96.51
2019-04-03T12:32:50.219Z,96.65
2019-04-03T12:35:24.075Z,96.86
2019-04-03T12:37:52.951Z,96.74
2019-04-03T12:40:22.039Z,96.93
2019-04-03T12:42:57.503Z,97.14
2019-04-03T12:45:27.422Z,96.79
2019-04-03T12:48:02.515Z,96.84
2019-04-03T12:50:34.896Z,96.69
2019-04-03T12:53:18.168Z,96.54
2019-04-03T12:55:47.762Z,96.14
2019-04-03T12:58:20.539Z,95.73
2019-04-03T13:00:50.337Z,95.80
2019-04-03T13:03:23.566Z,95.65
2019-04-03T13:05:51.163Z,95.58
2019-04-03T13:08:21.660Z,95.48
2019-04-03T13:10:51.229Z,95.28
2019-04-03T13:13:20.503Z,95.12
2019-04-03T13:15:49.450Z,95.02
2019-04-03T13:18:18.269Z,94.96
2019-04-03T13:20:47.217Z,95.27
2019-04-03T13:23:16.086Z,95.09
2019-04-03T13:25:45.334Z,94.97
2019-04-03T13:28:14.793Z,94.82
2019-04-03T13:30:47.321Z,95.19
2019-04-03T13:33:17.651Z,94.97
2019-04-03T13:35:48.134Z,95.06
2019-04-03T13:38:17.418Z,94.37
2019-04-03T13:40:48.389Z,94.43
2019-04-03T13:43:21.026Z,94.52
2019-04-03T13:45:49.226Z,94.77
2019-04-03T13:48:18.476Z,94.54
2019-04-03T13:50:47.910Z,94.44
2019-04-03T13:53:18.376Z,94.81
2019-04-03T13:55:47.859Z,94.89
2019-04-03T13:58:21.140Z,94.57
2019-04-03T14:00:59.024Z,94.63
2019-04-03T14:03:22.688Z,94.53
2019-04-03T14:05:51.649Z,94.38
2019-04-03T14:08:21.002Z,94.28
2019-04-03T14:10:49.951Z,94.29
2019-04-03T14:13:18.939Z,94.58
2019-04-03T14:15:50.342Z,94.75
2019-04-03T14:18:22.546Z,94.90
2019-04-03T14:20:52.069Z,95.03
2019-04-03T14:23:21.433Z,94.38
2019-04-03T14:26:02.202Z,94.02
2019-04-03T14:28:23.454Z,94.18
2019-04-03T14:30:52.793Z,94.37
2019-04-03T14:33:41.775Z,94.31
2019-04-03T14:35:58.971Z,93.98
2019-04-03T14:38:33.055Z,94.10
2019-04-03T14:41:01.965Z,94.45
2019-04-03T14:43:34.572Z,94.25
2019-04-03T14:46:06.441Z,94.34
2019-04-03T14:48:39.423Z,94.65
2019-04-03T14:51:12.140Z,94.30
2019-04-03T14:53:41.302Z,94.37
2019-04-03T14:56:10.558Z,94.60
2019-04-03T14:58:39.483Z,94.53
2019-04-03T15:01:08.635Z,94.38
2019-04-03T15:03:37.559Z,94.61
2019-04-03T15:06:09.828Z,94.92
2019-04-03T15:08:38.984Z,94.60
2019-04-03T15:11:08.170Z,94.80
2019-04-03T15:13:37.704Z,94.42
2019-04-03T15:16:21.071Z,94.43
2019-04-03T15:18:52.711Z,94.11
2019-04-03T15:21:24.780Z,94.15
2019-04-03T15:23:56.590Z,93.98
2019-04-03T15:26:25.961Z,93.66
2019-04-03T15:28:58.042Z,93.58
2019-04-03T15:31:27.031Z,93.72
2019-04-03T15:33:56.309Z,93.41
2019-04-03T15:36:25.675Z,93.32
2019-04-03T15:38:54.619Z,92.45
2019-04-03T15:41:53.182Z,92.08
2019-04-03T15:44:22.377Z,90.86
2019-04-03T15:46:51.780Z,88.24
2019-04-03T15:49:21.608Z,87.56
2019-04-03T15:55:29.534Z,83.45
2019-04-03T15:57:59.031Z,81.31
2019-04-03T16:00:29.613Z,75.33
2019-04-03T16:02:59.120Z,81.66
2019-04-03T16:05:30.598Z,69.85
2019-04-03T16:08:00.704Z,53.97
2019-04-03T16:10:29.687Z,56.95
2019-04-03T16:13:01.147Z,49.29
2019-04-03T16:15:39.219Z,47.37
2019-04-03T16:18:12.421Z,48.73
2019-04-03T16:20:50.907Z,49.36
2019-04-03T16:23:19.882Z,44.91
2019-04-03T16:25:51.197Z,46.96
2019-04-03T16:28:23.278Z,48.84
2019-04-03T16:30:54.411Z,45.11
2019-04-03T16:33:24.927Z,48.07
2019-04-03T16:35:54.415Z,44.91
2019-04-03T16:38:24.040Z,41.93
2019-04-03T16:40:54.658Z,40.88
2019-04-03T16:43:30.039Z,44.11
2019-04-03T16:45:59.435Z,59.54
2019-04-03T16:49:24.977Z,69.80
2019-04-03T16:51:55.900Z,72.97
2019-04-03T16:57:30.058Z,79.29
2019-04-03T16:59:59.271Z,80.12
2019-04-03T17:02:29.993Z,81.36
2019-04-03T17:05:36.244Z,79.92
2019-04-03T17:08:05.143Z,81.05
2019-04-03T17:10:34.174Z,82.79
2019-04-03T17:13:03.260Z,84.27
2019-04-03T17:15:34.162Z,84.27
2019-04-03T17:18:02.772Z,83.26
2019-04-03T17:20:32.077Z,84.12
2019-04-03T17:23:00.930Z,84.66
2019-04-03T17:25:38.207Z,85.48
2019-04-03T17:28:06.101Z,84.78
2019-04-03T17:30:31.796Z,85.25
2019-04-03T17:33:02.967Z,87.11
2019-04-03T17:35:34.691Z,87.53
2019-04-03T17:38:04.680Z,87.59
2019-04-03T17:40:37.280Z,88.28
2019-04-03T17:43:06.248Z,87.52
2019-04-03T17:45:35.302Z,89.12
2019-04-03T17:48:04.604Z,88.23
2019-04-03T17:50:33.468Z,88.76
2019-04-03T17:53:02.959Z,88.33
2019-04-03T17:55:31.984Z,89.80
2019-04-03T17:58:00.954Z,88.82
2019-04-03T18:00:29.996Z,88.34
2019-04-03T18:03:00.624Z,88.23
2019-04-03T18:05:29.482Z,88.65
2019-04-03T18:07:58.905Z,89.09
2019-04-03T18:10:30.011Z,89.23
2019-04-03T18:12:59.054Z,89.32
2019-04-03T18:15:32.924Z,91.45
2019-04-03T18:18:04.233Z,90.22
2019-04-03T18:20:33.155Z,89.84
2019-04-03T18:23:13.356Z,89.95
2019-04-03T18:25:47.759Z,89.57
2019-04-03T18:28:20.968Z,89.80
2019-04-03T18:30:51.421Z,90.50
2019-04-03T18:33:20.781Z,92.86
2019-04-03T18:35:51.056Z,91.40
2019-04-03T18:38:20.204Z,90.49
2019-04-03T18:40:49.998Z,90.15
2019-04-03T18:43:21.615Z,90.20
2019-04-03T18:45:50.828Z,90.36
2019-04-03T18:48:19.887Z,90.17
2019-04-03T18:50:52.155Z,90.49
2019-04-03T18:53:22.665Z,90.09
2019-04-03T18:55:51.755Z,89.77
2019-04-03T18:58:25.067Z,89.92
2019-04-03T19:00:55.996Z,92.12
2019-04-03T19:03:26.783Z,91.59
2019-04-03T19:06:00.220Z,90.88
2019-04-03T19:08:29.186Z,90.72
2019-04-03T19:11:09.605Z,91.25
2019-04-03T19:13:32.579Z,90.00
2019-04-03T19:16:08.337Z,89.70
2019-04-03T19:18:46.620Z,89.91
2019-04-03T19:21:24.593Z,90.31
2019-04-03T19:24:09.172Z,89.99
2019-04-03T19:26:41.148Z,90.49
2019-04-03T19:29:14.388Z,89.89
2019-04-03T19:31:50.224Z,90.55
2019-04-03T19:34:27.267Z,90.99
2019-04-03T19:37:14.214Z,90.85
2019-04-03T19:39:46.846Z,90.00
2019-04-03T19:42:19.091Z,90.75
2019-04-03T19:45:01.596Z,91.33
2019-04-03T19:47:30.614Z,90.84
2019-04-03T19:50:00.787Z,90.25
2019-04-03T19:52:32.167Z,90.31
2019-04-03T19:55:00.653Z,90.73
2019-04-03T19:57:29.536Z,92.93
2019-04-03T20:00:02.742Z,93.18
2019-04-03T20:02:30.797Z,93.30
2019-04-03T20:04:59.720Z,93.80
2019-04-03T20:07:28.653Z,94.72
2019-04-03T20:09:57.508Z,94.55
2019-04-03T20:12:26.497Z,94.85
2019-04-03T20:14:58.385Z,94.06
2019-04-03T20:17:26.166Z,94.22
2019-04-03T20:19:55.939Z,94.28
2019-04-03T20:22:25.760Z,94.28
2019-04-03T20:25:00.125Z,94.54
2019-04-03T20:27:25.423Z,94.25
2019-04-03T20:29:54.480Z,94.03
2019-04-03T20:32:28.934Z,94.40
2019-04-03T20:34:58.640Z,94.97
2019-04-03T20:37:27.467Z,94.21
2019-04-03T20:39:59.692Z,93.42
2019-04-03T20:42:27.179Z,93.21
2019-04-03T20:44:56.783Z,93.48
2019-04-03T20:47:26.963Z,93.40
2019-04-03T20:49:56.512Z,93.29
2019-04-03T20:52:25.761Z,94.71
2019-04-03T20:54:54.817Z,94.98
2019-04-03T20:57:23.750Z,95.31
2019-04-03T21:00:01.900Z,95.43
2019-04-03T21:02:23.787Z,95.84
2019-04-03T21:04:55.519Z,95.67
2019-04-03T21:07:27.551Z,95.46
2019-04-03T21:09:56.429Z,95.82
2019-04-03T21:12:26.772Z,95.72
2019-04-03T21:15:07.655Z,94.95
2019-04-03T21:17:26.339Z,94.72
2019-04-03T21:19:55.254Z,95.79
2019-04-03T21:22:24.385Z,95.51
2019-04-03T21:24:56.277Z,95.55
2019-04-03T21:27:27.341Z,95.52
2019-04-03T21:29:58.189Z,96.13
2019-04-03T21:32:28.650Z,96.03
2019-04-03T21:34:57.536Z,95.90
2019-04-03T21:37:26.443Z,95.88
2019-04-03T21:39:55.418Z,95.63
2019-04-03T21:42:26.996Z,96.11
2019-04-03T21:44:56.414Z,95.34
2019-04-03T21:47:25.331Z,94.94
2019-04-03T21:49:54.263Z,94.52
2019-04-03T21:52:23.327Z,94.94
2019-04-03T21:54:52.663Z,95.22
2019-04-03T21:57:21.664Z,95.65
2019-04-03T21:59:50.676Z,95.21
2019-04-03T22:02:19.818Z,95.24
2019-04-03T22:04:48.912Z,94.87
2019-04-03T22:07:17.833Z,94.80
2019-04-03T22:09:46.774Z,94.71
2019-04-03T22:12:21.925Z,94.62
2019-04-03T22:14:52.494Z,94.23
2019-04-03T22:17:22.036Z,94.78
2019-04-03T22:19:51.422Z,94.91
2019-04-03T22:22:20.457Z,94.27
2019-04-03T22:24:49.690Z,93.87
2019-04-03T22:27:18.545Z,93.44
2019-04-03T22:29:50.622Z,92.91
2019-04-03T22:32:18.380Z,93.27
2019-04-03T22:34:47.246Z,92.99
2019-04-03T22:37:19.018Z,93.45
2019-04-03T22:39:47.936Z,93.43
2019-04-03T22:42:16.992Z,93.66
2019-04-03T22:44:48.317Z,93.27
2019-04-03T22:47:17.449Z,92.89
2019-04-03T22:49:46.336Z,92.83
2019-04-03T22:52:22.000Z,92.35
2019-04-03T22:55:00.314Z,92.47
2019-04-03T22:57:33.959Z,92.77
2019-04-03T23:09:56.844Z,92.00
2019-04-03T23:12:26.172Z,91.68
2019-04-03T23:15:18.001Z,91.26
2019-04-03T23:17:46.888Z,91.07
2019-04-03T23:20:15.855Z,90.63
2019-04-03T23:22:44.701Z,91.20
2019-04-03T23:25:13.691Z,90.06
2019-04-03T23:27:42.718Z,89.99
2019-04-03T23:30:12.112Z,89.81
2019-04-03T23:32:40.983Z,90.63
2019-04-03T23:35:10.153Z,90.80
2019-04-03T23:37:39.083Z,91.32
2019-04-03T23:40:08.085Z,90.86
2019-04-03T23:42:37.831Z,90.28
2019-04-03T23:45:07.709Z,89.83
2019-04-03T23:47:36.819Z,90.09
2019-04-03T23:50:06.302Z,90.02
2019-04-03T23:52:35.245Z,86.40
2019-04-03T23:55:05.300Z,88.47
2019-04-03T23:57:34.255Z,89.13
